createdAt,value
2023-01-25T00:02:19.779Z,2.00
2023-01-25T00:04:46.790Z,1.90
2023-01-25T00:07:13.594Z,1.90
2023-01-25T00:09:40.624Z,2.00
2023-01-25T00:12:07.559Z,1.90
2023-01-25T00:14:35.479Z,1.90
2023-01-25T00:17:02.409Z,1.90
2023-01-25T00:19:29.303Z,1.90
2023-01-25T00:21:56.037Z,1.90
2023-01-25T00:24:23.242Z,1.90
2023-01-25T00:26:50.263Z,1.90
2023-01-25T00:29:17.857Z,1.80
2023-01-25T00:32:06.871Z,1.80
2023-01-25T00:34:52.175Z,1.90
2023-01-25T00:37:32.501Z,1.80
2023-01-25T00:39:59.263Z,1.80
2023-01-25T00:42:28.124Z,1.80
2023-01-25T00:44:55.079Z,1.80
2023-01-25T00:47:22.010Z,1.80
2023-01-25T00:49:48.743Z,1.80
2023-01-25T00:52:43.857Z,1.80
2023-01-25T00:55:10.942Z,1.70
2023-01-25T00:57:37.978Z,1.80
2023-01-25T01:00:05.255Z,1.70
2023-01-25T01:02:32.130Z,1.70
2023-01-25T01:04:59.626Z,1.70
2023-01-25T01:07:27.669Z,1.70
2023-01-25T01:09:54.450Z,1.70
2023-01-25T01:12:24.153Z,1.70
2023-01-25T01:14:51.675Z,1.70
2023-01-25T01:17:19.816Z,1.70
2023-01-25T01:19:47.962Z,1.80
2023-01-25T01:22:15.319Z,1.80
2023-01-25T01:24:42.544Z,1.80
2023-01-25T01:27:09.495Z,1.70
2023-01-25T01:29:36.320Z,1.70
2023-01-25T01:32:03.307Z,1.70
2023-01-25T01:34:30.538Z,1.70
2023-01-25T01:36:57.661Z,1.70
2023-01-25T01:39:24.733Z,1.60
2023-01-25T01:41:53.418Z,1.60
2023-01-25T01:44:22.630Z,1.60
2023-01-25T01:46:56.190Z,1.60
2023-01-25T01:49:27.654Z,1.50
2023-01-25T01:52:01.768Z,1.50
2023-01-25T01:54:35.314Z,1.50
2023-01-25T01:57:15.007Z,1.50
2023-01-25T01:59:49.506Z,1.50
2023-01-25T02:05:26.833Z,1.50
2023-01-25T02:07:54.970Z,1.50
2023-01-25T02:10:24.133Z,1.60
2023-01-25T02:12:52.891Z,1.50
2023-01-25T02:15:19.928Z,1.50
2023-01-25T02:17:47.342Z,1.50
2023-01-25T02:20:35.436Z,1.50
2023-01-25T02:23:02.362Z,1.50
2023-01-25T02:25:29.272Z,1.50
2023-01-25T02:28:16.736Z,1.50
2023-01-25T02:30:44.144Z,1.50
2023-01-25T02:33:11.250Z,1.50
2023-01-25T02:35:38.229Z,1.50
2023-01-25T02:38:06.127Z,1.50
2023-01-25T02:40:36.416Z,1.50
2023-01-25T02:43:03.481Z,1.50
2023-01-25T02:45:30.400Z,1.50
2023-01-25T02:47:57.399Z,1.50
2023-01-25T02:50:24.298Z,1.50
2023-01-25T02:52:51.258Z,1.50
2023-01-25T02:55:18.507Z,1.40
2023-01-25T02:57:46.127Z,1.40
2023-01-25T03:00:15.356Z,1.40
2023-01-25T03:02:43.946Z,1.40
2023-01-25T03:05:11.251Z,1.40
2023-01-25T03:07:38.728Z,1.40
2023-01-25T03:10:05.743Z,1.40
2023-01-25T03:12:34.965Z,1.30
2023-01-25T03:15:01.911Z,1.30
2023-01-25T03:17:31.147Z,1.30
2023-01-25T03:19:58.279Z,1.40
2023-01-25T03:22:25.488Z,1.30
2023-01-25T03:24:52.545Z,1.30
2023-01-25T03:27:19.496Z,1.30
2023-01-25T03:29:49.241Z,1.20
2023-01-25T03:32:22.118Z,1.20
2023-01-25T03:34:49.067Z,1.20
2023-01-25T03:37:16.907Z,1.30
2023-01-25T03:39:44.132Z,1.20
2023-01-25T03:42:12.207Z,1.30
2023-01-25T03:44:39.606Z,1.10
2023-01-25T03:47:06.611Z,1.10
2023-01-25T03:49:33.532Z,1.10
2023-01-25T03:52:01.152Z,1.10
2023-01-25T03:54:37.431Z,1.10
2023-01-25T03:57:04.281Z,1.10
2023-01-25T03:59:36.993Z,1.10
2023-01-25T04:02:04.298Z,1.10
2023-01-25T04:04:31.088Z,1.00
2023-01-25T04:06:58.094Z,1.00
2023-01-25T04:09:25.606Z,1.00
2023-01-25T04:11:55.681Z,1.00
2023-01-25T04:14:34.984Z,1.00
2023-01-25T04:17:08.422Z,1.00
2023-01-25T04:20:07.964Z,0.90
2023-01-25T04:22:39.286Z,1.00
2023-01-25T04:25:08.079Z,1.00
2023-01-25T04:27:35.197Z,1.00
2023-01-25T04:30:09.621Z,1.00
2023-01-25T04:32:37.967Z,0.90
2023-01-25T04:35:17.606Z,0.90
2023-01-25T04:37:53.134Z,0.90
2023-01-25T04:40:20.093Z,1.00
2023-01-25T04:42:47.048Z,1.00
2023-01-25T04:45:14.133Z,1.00
2023-01-25T04:47:41.052Z,0.90
2023-01-25T04:50:09.374Z,0.90
2023-01-25T04:52:36.160Z,0.90
2023-01-25T04:55:03.027Z,0.90
2023-01-25T04:57:34.429Z,0.90
2023-01-25T05:00:01.243Z,0.90
2023-01-25T05:02:28.459Z,0.90
2023-01-25T05:04:55.627Z,0.90
2023-01-25T05:07:22.586Z,0.90
2023-01-25T05:09:49.863Z,1.00
2023-01-25T05:12:19.303Z,0.90
2023-01-25T05:14:54.088Z,0.90
2023-01-25T05:17:21.288Z,0.90
2023-01-25T05:19:48.281Z,1.00
2023-01-25T05:22:20.748Z,1.00
2023-01-25T05:24:50.984Z,0.90
2023-01-25T05:27:19.499Z,0.90
2023-01-25T05:29:55.395Z,0.90
2023-01-25T05:32:38.403Z,0.90
2023-01-25T05:35:06.477Z,0.90
2023-01-25T05:37:33.908Z,0.90
2023-01-25T05:40:04.706Z,0.90
2023-01-25T05:42:36.219Z,0.90
2023-01-25T05:45:04.598Z,0.90
2023-01-25T05:47:33.080Z,0.90
2023-01-25T05:49:59.915Z,0.90
2023-01-25T05:52:39.046Z,0.90
2023-01-25T05:55:06.326Z,0.90
2023-01-25T06:01:23.927Z,0.80
2023-01-25T06:03:57.977Z,0.90
2023-01-25T06:06:25.812Z,0.90
2023-01-25T06:08:54.011Z,0.90
2023-01-25T06:11:23.273Z,0.90
2023-01-25T06:13:51.154Z,0.90
2023-01-25T06:16:18.705Z,0.90
2023-01-25T06:19:17.249Z,0.90
2023-01-25T06:22:00.698Z,0.80
2023-01-25T06:24:27.553Z,0.80
2023-01-25T06:26:54.610Z,0.80
2023-01-25T06:29:21.594Z,0.80
2023-01-25T06:31:51.350Z,0.90
2023-01-25T06:34:18.641Z,0.90
2023-01-25T06:36:45.731Z,0.90
2023-01-25T06:39:13.047Z,0.90
2023-01-25T06:41:40.026Z,0.90
2023-01-25T06:44:08.256Z,0.90
2023-01-25T06:46:35.226Z,0.90
2023-01-25T06:49:02.335Z,0.90
2023-01-25T06:51:29.289Z,0.90
2023-01-25T06:53:56.120Z,0.90
2023-01-25T06:56:24.797Z,0.90
2023-01-25T06:58:54.418Z,0.90
2023-01-25T07:01:22.477Z,0.90
2023-01-25T07:03:50.380Z,0.90
2023-01-25T07:06:17.336Z,0.90
2023-01-25T07:08:44.253Z,0.90
2023-01-25T07:11:13.949Z,0.80
2023-01-25T07:13:41.579Z,0.80
2023-01-25T07:16:10.551Z,0.80
2023-01-25T07:18:37.574Z,0.80
2023-01-25T07:21:05.558Z,0.90
2023-01-25T07:23:32.891Z,0.80
2023-01-25T07:26:00.318Z,0.80
2023-01-25T07:28:27.254Z,0.80
2023-01-25T07:30:54.091Z,0.80
2023-01-25T07:33:21.015Z,0.90
2023-01-25T07:35:50.965Z,0.90
2023-01-25T07:38:17.872Z,0.90
2023-01-25T07:40:50.962Z,0.90
2023-01-25T07:43:17.825Z,0.90
2023-01-25T07:45:48.713Z,0.80
2023-01-25T07:48:16.336Z,0.80
2023-01-25T07:50:46.591Z,0.80
2023-01-25T07:53:13.955Z,0.80
2023-01-25T07:55:40.761Z,0.80
2023-01-25T07:58:08.980Z,0.80
2023-01-25T08:00:35.723Z,0.80
2023-01-25T08:03:02.704Z,0.80
2023-01-25T08:05:29.638Z,0.80
2023-01-25T08:07:56.407Z,0.80
2023-01-25T08:10:23.179Z,0.80
2023-01-25T08:12:50.087Z,0.80
2023-01-25T08:15:17.179Z,0.80
2023-01-25T08:17:43.919Z,0.80
2023-01-25T08:20:12.629Z,0.80
2023-01-25T08:22:39.388Z,0.80
2023-01-25T08:25:06.852Z,0.80
2023-01-25T08:27:33.836Z,0.80
2023-01-25T08:30:00.676Z,0.80
2023-01-25T08:32:27.493Z,0.90
2023-01-25T08:34:54.288Z,0.80
2023-01-25T08:37:21.127Z,0.80
2023-01-25T08:39:47.861Z,0.80
2023-01-25T08:42:14.676Z,0.80
2023-01-25T08:44:41.451Z,0.90
2023-01-25T08:47:08.374Z,0.90
2023-01-25T08:49:35.204Z,0.80
2023-01-25T08:52:03.075Z,0.90
2023-01-25T08:54:29.917Z,0.90
2023-01-25T08:56:56.783Z,0.90
2023-01-25T08:59:23.612Z,0.90
2023-01-25T09:01:50.365Z,0.90
2023-01-25T09:04:17.230Z,0.90
2023-01-25T09:06:44.552Z,0.90
2023-01-25T09:09:11.894Z,0.90
2023-01-25T09:11:40.283Z,1.00
2023-01-25T09:14:07.119Z,0.90
2023-01-25T09:16:33.923Z,0.90
2023-01-25T09:19:02.829Z,0.90
2023-01-25T09:21:29.885Z,0.80
2023-01-25T09:24:06.062Z,0.90
2023-01-25T09:26:34.602Z,0.90
2023-01-25T09:29:01.736Z,0.80
2023-01-25T09:31:29.404Z,0.80
2023-01-25T09:34:11.445Z,0.80
2023-01-25T09:36:38.231Z,0.80
2023-01-25T09:39:05.129Z,0.80
2023-01-25T09:41:41.167Z,0.90
2023-01-25T09:44:26.814Z,0.90
2023-01-25T09:46:56.318Z,0.90
2023-01-25T09:49:26.128Z,0.90
2023-01-25T09:52:25.493Z,0.90
2023-01-25T09:54:52.481Z,0.90
2023-01-25T09:57:27.581Z,0.90
2023-01-25T09:59:54.610Z,0.90
2023-01-25T10:02:30.576Z,0.90
2023-01-25T10:05:00.410Z,0.90
2023-01-25T10:07:27.178Z,0.90
2023-01-25T10:10:00.928Z,0.90
2023-01-25T10:12:31.226Z,0.90
2023-01-25T10:14:58.333Z,0.90
2023-01-25T10:17:38.833Z,0.90
2023-01-25T10:20:25.901Z,0.90
2023-01-25T10:23:08.046Z,0.90
2023-01-25T10:25:36.408Z,0.90
2023-01-25T10:28:09.866Z,0.90
2023-01-25T10:30:57.212Z,1.00
2023-01-25T10:33:24.208Z,1.00
2023-01-25T10:35:51.110Z,1.00
2023-01-25T10:38:36.749Z,0.90
2023-01-25T10:41:09.795Z,0.90
2023-01-25T10:43:36.630Z,0.90
2023-01-25T10:46:03.493Z,0.90
2023-01-25T10:48:33.096Z,0.90
2023-01-25T10:50:59.849Z,0.90
2023-01-25T10:53:44.772Z,0.90
2023-01-25T10:56:11.519Z,0.90
2023-01-25T10:58:42.497Z,0.90
2023-01-25T11:01:12.215Z,0.90
2023-01-25T11:03:44.854Z,0.90
2023-01-25T11:06:11.932Z,1.00
2023-01-25T11:08:39.993Z,1.00
2023-01-25T11:11:25.559Z,1.00
2023-01-25T11:13:54.947Z,1.00
2023-01-25T11:16:30.010Z,1.00
2023-01-25T11:18:57.652Z,1.00
2023-01-25T11:21:26.150Z,1.00
2023-01-25T11:24:16.314Z,1.10
2023-01-25T11:26:43.386Z,1.00
2023-01-25T11:29:14.586Z,1.00
2023-01-25T11:31:45.467Z,1.00
2023-01-25T11:34:14.237Z,1.00
2023-01-25T11:36:44.027Z,1.00
2023-01-25T11:39:23.219Z,1.00
2023-01-25T11:41:55.663Z,1.10
2023-01-25T11:44:45.979Z,1.10
2023-01-25T11:47:31.767Z,1.00
2023-01-25T11:49:58.590Z,1.00
2023-01-25T11:52:31.116Z,1.00
2023-01-25T11:55:18.128Z,1.00
2023-01-25T11:58:03.833Z,1.00
2023-01-25T12:00:36.198Z,1.00
2023-01-25T12:03:12.200Z,1.00
2023-01-25T12:05:45.182Z,1.00
2023-01-25T12:08:17.977Z,1.00
2023-01-25T12:10:47.847Z,1.00
2023-01-25T12:13:33.705Z,1.10
2023-01-25T12:16:19.274Z,1.10
2023-01-25T12:19:02.424Z,1.10
2023-01-25T12:21:41.589Z,1.10
2023-01-25T12:24:27.273Z,1.10
2023-01-25T12:27:00.742Z,1.10
2023-01-25T12:29:43.778Z,1.00
2023-01-25T12:32:13.592Z,1.10
2023-01-25T12:34:47.152Z,1.10
2023-01-25T12:37:30.981Z,1.00
2023-01-25T12:40:03.927Z,1.00
2023-01-25T12:42:49.762Z,1.00
2023-01-25T12:45:19.383Z,1.00
2023-01-25T12:48:01.644Z,1.00
2023-01-25T12:50:35.590Z,1.00
2023-01-25T12:53:02.482Z,1.00
2023-01-25T12:55:29.381Z,1.00
2023-01-25T12:57:56.939Z,1.00
2023-01-25T13:00:26.831Z,1.00
2023-01-25T13:02:53.661Z,1.00
2023-01-25T13:05:21.847Z,1.00
2023-01-25T13:08:07.035Z,1.00
2023-01-25T13:10:35.709Z,1.10
2023-01-25T13:13:17.198Z,1.10
2023-01-25T13:15:45.554Z,1.10
2023-01-25T13:18:33.687Z,1.10
2023-01-25T13:21:09.583Z,1.10
2023-01-25T13:23:44.146Z,1.10
2023-01-25T13:26:28.448Z,1.00
2023-01-25T13:28:56.678Z,0.90
2023-01-25T13:31:51.395Z,1.00
2023-01-25T13:34:39.061Z,0.90
2023-01-25T13:37:21.311Z,0.90
2023-01-25T13:39:51.339Z,1.00
2023-01-25T13:42:26.600Z,0.90
2023-01-25T13:44:55.397Z,1.00
2023-01-25T13:47:23.682Z,1.00
2023-01-25T13:49:54.664Z,1.00
2023-01-25T13:52:22.749Z,1.00
2023-01-25T13:54:54.036Z,1.00
2023-01-25T13:57:22.491Z,1.00
2023-01-25T14:00:09.893Z,1.00
2023-01-25T14:02:38.710Z,1.00
2023-01-25T14:05:08.142Z,1.00
2023-01-25T14:07:36.940Z,1.00
2023-01-25T14:10:08.206Z,1.00
2023-01-25T14:12:39.427Z,1.00
2023-01-25T14:15:15.576Z,1.00
2023-01-25T14:17:42.343Z,1.00
2023-01-25T14:20:19.791Z,1.00
2023-01-25T14:22:50.443Z,1.00
2023-01-25T14:25:18.644Z,1.00
2023-01-25T14:27:53.009Z,1.00
2023-01-25T14:30:25.944Z,0.90
2023-01-25T14:33:03.158Z,0.90
2023-01-25T14:35:42.288Z,0.90
2023-01-25T14:38:22.554Z,0.90
2023-01-25T14:40:50.482Z,0.90
2023-01-25T14:43:17.728Z,0.90
2023-01-25T14:45:45.205Z,0.90
2023-01-25T14:48:30.979Z,0.90
2023-01-25T14:51:03.124Z,0.90
2023-01-25T14:53:30.729Z,0.90
2023-01-25T14:55:57.580Z,0.90
2023-01-25T14:58:24.981Z,0.80
2023-01-25T15:00:52.529Z,0.80
2023-01-25T15:03:19.585Z,0.80
2023-01-25T15:05:47.250Z,0.80
2023-01-25T15:08:25.277Z,0.80
2023-01-25T15:10:53.418Z,0.80
2023-01-25T15:13:21.760Z,0.80
2023-01-25T15:15:52.217Z,0.70
2023-01-25T15:18:37.769Z,0.70
2023-01-25T15:21:04.570Z,0.70
2023-01-25T15:23:34.261Z,0.70
2023-01-25T15:26:01.758Z,0.60
2023-01-25T15:28:34.261Z,0.60
2023-01-25T15:31:01.344Z,0.70
2023-01-25T15:33:29.660Z,0.70
2023-01-25T15:35:56.710Z,0.70
2023-01-25T15:38:25.059Z,0.70
2023-01-25T15:40:54.924Z,0.80
2023-01-25T15:43:21.784Z,0.90
2023-01-25T15:45:50.585Z,0.80
2023-01-25T15:48:19.763Z,0.80
2023-01-25T15:50:46.559Z,0.80
2023-01-25T15:53:17.054Z,0.70
2023-01-25T15:55:45.816Z,0.70
2023-01-25T15:58:17.663Z,0.70
2023-01-25T16:00:44.827Z,0.70
2023-01-25T16:03:11.652Z,0.70
2023-01-25T16:05:38.608Z,0.70
2023-01-25T16:08:05.609Z,0.70
2023-01-25T16:10:33.368Z,0.70
2023-01-25T16:13:00.300Z,0.70
2023-01-25T16:15:27.224Z,0.70
2023-01-25T16:17:53.975Z,0.70
2023-01-25T16:20:21.596Z,0.70
2023-01-25T16:22:48.669Z,0.70
2023-01-25T16:25:16.690Z,0.70
2023-01-25T16:27:43.537Z,0.70
2023-01-25T16:30:18.350Z,0.70
2023-01-25T16:32:46.578Z,0.70
2023-01-25T16:35:13.675Z,0.70
2023-01-25T16:37:40.668Z,0.70
2023-01-25T16:40:15.115Z,0.60
2023-01-25T16:42:41.943Z,0.60
2023-01-25T16:45:09.045Z,0.60
2023-01-25T16:47:35.911Z,0.60
2023-01-25T16:50:02.806Z,0.60
2023-01-25T16:52:29.856Z,0.60
2023-01-25T16:54:56.796Z,0.50
2023-01-25T16:57:23.625Z,0.50
2023-01-25T16:59:50.651Z,0.50
2023-01-25T17:02:17.519Z,0.50
2023-01-25T17:04:44.559Z,0.50
2023-01-25T17:07:12.238Z,0.50
2023-01-25T17:09:39.099Z,0.50
2023-01-25T17:12:08.383Z,0.50
2023-01-25T17:14:36.041Z,0.40
2023-01-25T17:17:05.299Z,0.40
2023-01-25T17:19:32.184Z,0.40
2023-01-25T17:21:59.165Z,0.50
2023-01-25T17:24:26.126Z,0.40
2023-01-25T17:26:57.431Z,0.40
2023-01-25T17:29:24.503Z,0.50
2023-01-25T17:31:51.373Z,0.50
2023-01-25T17:34:18.646Z,0.50
2023-01-25T17:36:45.638Z,0.50
2023-01-25T17:39:16.405Z,0.50
2023-01-25T17:41:44.021Z,0.50
2023-01-25T17:44:11.432Z,0.50
2023-01-25T17:46:39.251Z,0.40
2023-01-25T17:49:07.887Z,0.40
2023-01-25T17:51:35.360Z,0.40
2023-01-25T17:54:02.692Z,0.40
2023-01-25T17:56:29.522Z,0.40
2023-01-25T17:58:56.536Z,0.40
2023-01-25T18:01:24.845Z,0.30
2023-01-25T18:03:52.717Z,0.30
2023-01-25T18:06:20.967Z,0.40
2023-01-25T18:09:06.298Z,0.30
2023-01-25T18:11:54.633Z,0.30
2023-01-25T18:14:21.771Z,0.30
2023-01-25T18:16:48.628Z,0.30
2023-01-25T18:19:15.526Z,0.30
2023-01-25T18:21:43.362Z,0.30
2023-01-25T18:24:22.359Z,0.30
2023-01-25T18:26:50.408Z,0.30
2023-01-25T18:29:17.145Z,0.30
2023-01-25T18:31:45.456Z,0.30
2023-01-25T18:34:12.664Z,0.30
2023-01-25T18:36:39.683Z,0.20
2023-01-25T18:39:08.521Z,0.30
2023-01-25T18:41:35.308Z,0.30
2023-01-25T18:44:02.171Z,0.30
2023-01-25T18:46:28.961Z,0.30
2023-01-25T18:48:55.834Z,0.30
2023-01-25T18:51:23.551Z,0.30
2023-01-25T18:53:51.229Z,0.30
2023-01-25T18:56:19.337Z,0.30
2023-01-25T18:58:47.146Z,0.30
2023-01-25T19:01:15.407Z,0.20
2023-01-25T19:03:42.690Z,0.20
2023-01-25T19:06:09.615Z,0.20
2023-01-25T19:08:41.194Z,0.20
2023-01-25T19:11:10.718Z,0.20
2023-01-25T19:13:38.530Z,0.20
2023-01-25T19:16:14.370Z,0.20
2023-01-25T19:18:50.071Z,0.20
2023-01-25T19:21:18.450Z,0.20
2023-01-25T19:23:46.142Z,0.20
2023-01-25T19:26:14.452Z,0.20
2023-01-25T19:28:41.791Z,0.20
2023-01-25T19:31:09.626Z,0.20
2023-01-25T19:33:37.065Z,0.20
2023-01-25T19:36:05.361Z,0.20
2023-01-25T19:38:40.463Z,0.20
2023-01-25T19:44:33.406Z,0.30
2023-01-25T19:47:00.306Z,0.30
2023-01-25T19:49:27.203Z,0.20
2023-01-25T19:53:57.611Z,0.20
2023-01-25T19:56:21.958Z,0.20
2023-01-25T19:58:51.840Z,0.10
2023-01-25T20:01:20.748Z,0.20
2023-01-25T20:03:53.492Z,0.20
2023-01-25T20:06:21.101Z,0.10
2023-01-25T20:08:48.107Z,0.20
2023-01-25T20:11:16.530Z,0.20
2023-01-25T20:13:43.554Z,0.20
2023-01-25T20:16:11.370Z,0.30
2023-01-25T20:18:44.119Z,0.20
2023-01-25T20:21:13.639Z,0.20
2023-01-25T20:23:42.638Z,0.20
2023-01-25T20:26:15.163Z,0.20
2023-01-25T20:28:46.903Z,0.20
2023-01-25T20:31:34.747Z,0.20
2023-01-25T20:34:14.642Z,0.20
2023-01-25T20:36:42.348Z,0.20
2023-01-25T20:39:11.221Z,0.20
2023-01-25T20:41:38.172Z,0.20
2023-01-25T20:44:08.439Z,0.20
2023-01-25T20:46:37.314Z,0.20
2023-01-25T20:49:08.015Z,0.20
2023-01-25T20:51:39.919Z,0.20
2023-01-25T20:54:15.776Z,0.20
2023-01-25T20:56:45.318Z,0.20
2023-01-25T20:59:12.254Z,0.20
2023-01-25T21:01:39.406Z,0.20
2023-01-25T21:06:52.959Z,0.30
2023-01-25T21:09:28.557Z,0.30
2023-01-25T21:11:55.765Z,0.30
2023-01-25T21:14:23.765Z,0.30
2023-01-25T21:16:51.743Z,0.30
2023-01-25T21:19:19.103Z,0.30
2023-01-25T21:28:59.944Z,0.30
2023-01-25T21:31:28.097Z,0.30
2023-01-25T21:33:58.466Z,0.30
2023-01-25T21:36:25.806Z,0.20
2023-01-25T21:38:53.464Z,0.20
2023-01-25T21:41:24.743Z,0.30
2023-01-25T21:44:11.265Z,0.30
2023-01-25T21:46:38.204Z,0.30
2023-01-25T21:49:24.786Z,0.30
2023-01-25T21:51:52.581Z,0.30
2023-01-25T21:54:23.801Z,0.30
2023-01-25T21:56:52.242Z,0.30
2023-01-25T21:59:22.717Z,0.30
2023-01-25T22:01:49.722Z,0.40
2023-01-25T22:04:17.252Z,0.30
2023-01-25T22:06:44.387Z,0.30
2023-01-25T22:09:13.045Z,0.30
2023-01-25T22:11:40.258Z,0.30
2023-01-25T22:14:06.992Z,0.30
2023-01-25T22:16:36.779Z,0.30
2023-01-25T22:19:03.836Z,0.30
2023-01-25T22:21:53.432Z,0.20
2023-01-25T22:24:22.791Z,0.30
2023-01-25T22:27:09.040Z,0.30
2023-01-25T22:29:37.123Z,0.30
2023-01-25T22:32:04.141Z,0.30
2023-01-25T22:34:30.868Z,0.30
2023-01-25T22:37:00.625Z,0.20
2023-01-25T22:39:27.413Z,0.20
2023-01-25T22:41:57.389Z,0.20
2023-01-25T22:44:24.118Z,0.20
2023-01-25T22:46:52.367Z,0.20
2023-01-25T22:49:20.257Z,0.20
2023-01-25T22:51:47.380Z,0.20
2023-01-25T22:54:16.723Z,0.20
2023-01-25T22:56:43.495Z,0.20
2023-01-25T22:59:11.845Z,0.20
2023-01-25T23:01:38.743Z,0.20
2023-01-25T23:04:05.851Z,0.20
2023-01-25T23:06:34.365Z,0.20
2023-01-25T23:09:05.832Z,0.20
2023-01-25T23:11:37.054Z,0.20
2023-01-25T23:14:23.239Z,0.30
2023-01-25T23:16:50.145Z,0.20
2023-01-25T23:19:17.027Z,0.20
2023-01-25T23:21:52.199Z,0.20
2023-01-25T23:24:19.506Z,0.30
2023-01-25T23:26:46.697Z,0.30
2023-01-25T23:29:16.098Z,0.20
2023-01-25T23:31:45.045Z,0.30
2023-01-25T23:34:12.200Z,0.30
2023-01-25T23:36:40.007Z,0.20
2023-01-25T23:39:07.186Z,0.20
2023-01-25T23:41:35.101Z,0.20
2023-01-25T23:44:01.949Z,0.30
2023-01-25T23:46:29.059Z,0.30
2023-01-25T23:48:56.005Z,0.30
2023-01-25T23:51:22.923Z,0.30
2023-01-25T23:53:53.458Z,0.30
2023-01-25T23:56:23.721Z,0.30
2023-01-25T23:58:50.988Z,0.30
